createdAt,value
2019-03-20T00:00:35.649Z,8.20
2019-03-20T00:03:04.862Z,9.73
2019-03-20T00:05:33.318Z,8.77
2019-03-20T00:08:01.833Z,9.03
2019-03-20T00:10:30.550Z,9.10
2019-03-20T00:12:58.996Z,9.00
2019-03-20T00:15:27.509Z,9.43
2019-03-20T00:17:55.955Z,9.17
2019-03-20T00:20:24.411Z,8.50
2019-03-20T00:22:52.892Z,8.87
2019-03-20T00:25:21.377Z,9.83
2019-03-20T00:27:50.588Z,7.77
2019-03-20T00:30:20.909Z,9.43
2019-03-20T00:32:49.365Z,7.22
2019-03-20T00:35:17.814Z,8.47
2019-03-20T00:37:46.362Z,9.70
2019-03-20T00:40:18.385Z,8.50
2019-03-20T00:42:47.176Z,8.20
2019-03-20T00:45:37.890Z,7.77
2019-03-20T00:48:06.373Z,9.87
2019-03-20T00:50:34.865Z,9.10
2019-03-20T00:53:03.309Z,8.20
2019-03-20T00:55:31.761Z,8.70
2019-03-20T00:58:00.242Z,9.10
2019-03-20T01:00:28.748Z,9.53
2019-03-20T01:02:57.233Z,9.03
2019-03-20T01:05:25.809Z,8.90
2019-03-20T01:07:54.262Z,9.17
2019-03-20T01:10:25.359Z,9.63
2019-03-20T01:12:54.021Z,9.10
2019-03-20T01:15:22.538Z,9.47
2019-03-20T01:17:51.057Z,8.97
2019-03-20T01:20:21.575Z,8.63
2019-03-20T01:22:50.025Z,8.77
2019-03-20T01:25:19.210Z,9.90
2019-03-20T01:27:48.127Z,7.80
2019-03-20T01:30:40.212Z,9.90
2019-03-20T01:33:32.970Z,8.60
2019-03-20T01:36:01.426Z,8.70
2019-03-20T01:38:29.914Z,8.50
2019-03-20T01:40:58.397Z,7.93
2019-03-20T01:43:26.847Z,8.77
2019-03-20T01:45:55.331Z,8.53
2019-03-20T01:48:23.946Z,9.60
2019-03-20T01:50:52.384Z,8.97
2019-03-20T01:53:20.834Z,8.30
2019-03-20T01:55:49.336Z,8.50
2019-03-20T01:58:17.784Z,9.73
2019-03-20T02:00:46.229Z,9.73
2019-03-20T02:03:14.986Z,8.23
2019-03-20T02:05:43.436Z,9.60
2019-03-20T02:08:11.885Z,10.40
2019-03-20T02:10:55.442Z,10.23
2019-03-20T02:13:23.901Z,10.07
2019-03-20T02:15:52.385Z,9.73
2019-03-20T02:18:20.834Z,12.60
2019-03-20T02:20:49.487Z,10.07
2019-03-20T02:23:17.950Z,11.00
2019-03-20T02:25:46.714Z,9.83
2019-03-20T02:28:15.157Z,10.63
2019-03-20T02:30:43.605Z,9.77
2019-03-20T02:33:12.122Z,10.40
2019-03-20T02:35:51.413Z,11.80
2019-03-20T02:38:10.751Z,10.60
2019-03-20T02:40:39.266Z,11.60
2019-03-20T02:43:07.847Z,10.70
2019-03-20T02:45:36.335Z,10.23
2019-03-20T02:48:04.990Z,9.87
2019-03-20T02:50:33.511Z,10.50
2019-03-20T02:53:01.967Z,10.50
2019-03-20T02:55:30.455Z,10.63
2019-03-20T02:57:58.902Z,9.27
2019-03-20T03:00:27.406Z,9.13
2019-03-20T03:02:55.859Z,9.67
2019-03-20T03:05:24.466Z,10.33
2019-03-20T03:07:53.035Z,8.83
2019-03-20T03:10:21.494Z,10.97
2019-03-20T03:12:50.018Z,9.00
2019-03-20T03:15:18.533Z,9.70
2019-03-20T03:17:46.982Z,9.20
2019-03-20T03:20:18.135Z,9.57
2019-03-20T03:22:46.714Z,8.60
2019-03-20T03:25:15.453Z,9.13
2019-03-20T03:27:43.966Z,8.23
2019-03-20T03:30:17.701Z,9.70
2019-03-20T03:32:46.515Z,9.27
2019-03-20T03:35:18.509Z,8.30
2019-03-20T03:37:45.792Z,8.63
2019-03-20T03:40:19.214Z,10.03
2019-03-20T03:42:47.852Z,8.43
2019-03-20T03:45:17.044Z,8.87
2019-03-20T03:47:45.998Z,8.23
2019-03-20T03:50:15.387Z,8.03
2019-03-20T03:52:43.975Z,9.20
2019-03-20T03:55:13.467Z,9.87
2019-03-20T03:57:42.375Z,10.58
2019-03-20T04:00:16.525Z,9.40
2019-03-20T04:02:45.094Z,8.30
2019-03-20T04:05:14.002Z,8.97
2019-03-20T04:07:42.682Z,7.93
2019-03-20T04:10:13.746Z,8.77
2019-03-20T04:12:42.189Z,8.10
2019-03-20T04:15:12.505Z,8.73
2019-03-20T04:20:13.632Z,8.63
2019-03-20T04:22:42.164Z,9.13
2019-03-20T04:25:11.700Z,8.50
2019-03-20T04:27:40.155Z,8.78
2019-03-20T04:30:12.020Z,8.57
2019-03-20T04:32:40.759Z,9.57
2019-03-20T04:35:10.536Z,9.63
2019-03-20T04:37:39.137Z,8.80
2019-03-20T04:40:15.475Z,8.83
2019-03-20T04:42:43.964Z,9.20
2019-03-20T04:45:13.551Z,8.90
2019-03-20T04:47:42.004Z,9.60
2019-03-20T04:50:12.129Z,8.90
2019-03-20T04:52:40.596Z,9.78
2019-03-20T04:55:30.238Z,9.90
2019-03-20T04:57:58.689Z,8.03
2019-03-20T05:00:27.151Z,9.40
2019-03-20T05:02:55.643Z,8.60
2019-03-20T05:05:24.210Z,8.43
2019-03-20T05:07:52.671Z,9.03
2019-03-20T05:10:21.275Z,9.60
2019-03-20T05:12:49.785Z,9.43
2019-03-20T05:15:18.304Z,8.70
2019-03-20T05:17:46.753Z,10.07
2019-03-20T05:20:20.365Z,10.13
2019-03-20T05:22:48.815Z,9.13
2019-03-20T05:25:17.271Z,8.87
2019-03-20T05:27:45.752Z,8.90
2019-03-20T05:30:15.142Z,9.00
2019-03-20T05:32:43.809Z,10.50
2019-03-20T05:35:12.714Z,10.60
2019-03-20T05:37:41.217Z,10.23
2019-03-20T05:40:33.266Z,12.17
2019-03-20T05:43:01.822Z,11.53
2019-03-20T05:45:30.287Z,11.50
2019-03-20T05:47:58.738Z,12.10
2019-03-20T05:50:27.222Z,10.87
2019-03-20T05:52:55.688Z,12.10
2019-03-20T05:55:24.171Z,11.03
2019-03-20T05:57:52.629Z,11.77
2019-03-20T06:00:22.379Z,9.37
2019-03-20T06:02:50.827Z,11.70
2019-03-20T06:05:19.324Z,10.63
2019-03-20T06:07:48.346Z,9.57
2019-03-20T06:10:17.898Z,10.47
2019-03-20T06:12:46.388Z,10.00
2019-03-20T06:15:15.201Z,10.00
2019-03-20T06:17:43.822Z,9.73
2019-03-20T06:20:13.450Z,9.67
2019-03-20T06:22:41.899Z,9.88
2019-03-20T06:25:14.880Z,9.27
2019-03-20T06:27:43.696Z,9.20
2019-03-20T06:30:16.631Z,10.07
2019-03-20T06:32:45.241Z,10.10
2019-03-20T06:35:13.995Z,10.73
2019-03-20T06:37:42.445Z,9.30
2019-03-20T06:40:18.116Z,8.10
2019-03-20T06:42:46.678Z,8.63
2019-03-20T06:45:20.354Z,9.60
2019-03-20T06:47:48.875Z,9.40
2019-03-20T06:50:22.194Z,9.70
2019-03-20T06:52:50.646Z,9.80
2019-03-20T06:55:19.339Z,10.30
2019-03-20T06:57:47.785Z,9.73
2019-03-20T07:00:35.787Z,9.20
2019-03-20T07:03:10.345Z,8.30
2019-03-20T07:06:05.720Z,9.43
2019-03-20T07:08:39.989Z,8.20
2019-03-20T07:11:11.479Z,8.00
2019-03-20T07:13:39.926Z,8.70
2019-03-20T07:16:08.373Z,9.17
2019-03-20T07:18:36.933Z,9.27
2019-03-20T07:21:05.622Z,7.20
2019-03-20T07:23:34.136Z,7.90
2019-03-20T07:26:02.624Z,8.23
2019-03-20T07:28:31.108Z,9.23
2019-03-20T07:30:59.558Z,7.13
2019-03-20T07:33:28.041Z,7.10
2019-03-20T07:35:57.386Z,7.97
2019-03-20T07:38:25.845Z,9.27
2019-03-20T07:40:54.392Z,7.17
2019-03-20T07:43:22.841Z,7.17
2019-03-20T07:45:51.527Z,7.57
2019-03-20T07:48:22.478Z,6.50
2019-03-20T07:50:50.182Z,7.12
2019-03-20T07:53:18.715Z,6.77
2019-03-20T07:55:47.155Z,7.00
2019-03-20T07:58:15.609Z,6.20
2019-03-20T08:00:44.090Z,6.27
2019-03-20T08:03:12.597Z,5.20
2019-03-20T08:05:41.046Z,5.00
2019-03-20T08:08:09.497Z,5.30
2019-03-20T08:10:37.977Z,5.17
2019-03-20T08:13:06.425Z,6.43
2019-03-20T08:15:34.967Z,5.17
2019-03-20T08:18:03.649Z,4.83
2019-03-20T08:20:32.161Z,4.87
2019-03-20T08:23:00.661Z,4.60
2019-03-20T08:25:29.111Z,4.67
2019-03-20T08:27:57.560Z,4.40
2019-03-20T08:30:26.137Z,4.10
2019-03-20T08:32:54.579Z,4.40
2019-03-20T08:35:23.029Z,3.70
2019-03-20T08:37:51.528Z,4.57
2019-03-20T08:40:20.151Z,3.47
2019-03-20T08:42:48.669Z,4.27
2019-03-20T08:45:20.083Z,3.83
2019-03-20T08:47:48.534Z,3.60
2019-03-20T08:50:23.019Z,4.07
2019-03-20T08:52:51.499Z,3.40
2019-03-20T08:55:21.761Z,3.37
2019-03-20T08:57:50.353Z,3.12
2019-03-20T09:00:20.045Z,3.57
2019-03-20T09:02:48.499Z,3.05
2019-03-20T09:05:17.181Z,3.33
2019-03-20T09:07:47.374Z,3.25
2019-03-20T09:10:20.203Z,2.85
2019-03-20T09:12:48.813Z,2.92
2019-03-20T09:15:18.301Z,3.08
2019-03-20T09:17:47.110Z,3.03
2019-03-20T09:20:16.627Z,3.67
2019-03-20T09:22:45.075Z,3.10
2019-03-20T09:25:25.823Z,2.70
2019-03-20T09:30:26.241Z,3.45
2019-03-20T09:32:54.767Z,2.85
2019-03-20T09:35:23.285Z,2.60
2019-03-20T09:37:52.770Z,2.00
2019-03-20T09:40:23.880Z,2.80
2019-03-20T09:42:52.546Z,2.22
2019-03-20T09:45:22.173Z,2.67
2019-03-20T09:47:50.675Z,2.07
2019-03-20T09:52:41.131Z,1.90
2019-03-20T09:55:14.381Z,1.77
2019-03-20T09:57:42.899Z,2.37
2019-03-20T10:00:17.160Z,2.47
2019-03-20T10:02:45.665Z,3.02
2019-03-20T10:05:14.330Z,3.10
2019-03-20T10:07:42.778Z,3.25
2019-03-20T10:10:25.846Z,2.98
2019-03-20T10:12:54.355Z,3.05
2019-03-20T10:15:25.205Z,3.47
2019-03-20T10:17:53.686Z,3.35
2019-03-20T10:20:22.881Z,4.30
2019-03-20T10:22:51.551Z,4.17
2019-03-20T10:25:19.994Z,3.70
2019-03-20T10:27:48.441Z,3.58
2019-03-20T10:30:24.143Z,3.60
2019-03-20T10:32:52.666Z,3.20
2019-03-20T10:35:21.177Z,3.90
2019-03-20T10:37:49.645Z,4.10
2019-03-20T10:40:26.177Z,5.03
2019-03-20T10:42:54.689Z,4.12
2019-03-20T10:45:23.205Z,4.40
2019-03-20T10:47:53.225Z,4.90
2019-03-20T10:52:50.705Z,4.75
2019-03-20T10:55:19.219Z,5.08
2019-03-20T10:57:47.748Z,5.03
2019-03-20T11:00:23.104Z,3.90
2019-03-20T11:02:51.587Z,4.10
2019-03-20T11:05:20.854Z,3.75
2019-03-20T11:07:49.546Z,3.52
2019-03-20T11:10:22.718Z,4.87
2019-03-20T11:12:51.433Z,5.25
2019-03-20T11:15:20.950Z,4.53
2019-03-20T11:17:49.476Z,4.67
2019-03-20T11:20:22.185Z,4.70
2019-03-20T11:22:50.932Z,4.42
2019-03-20T11:25:23.985Z,4.85
2019-03-20T11:27:52.505Z,5.22
2019-03-20T11:30:26.306Z,4.97
2019-03-20T11:32:54.921Z,5.10
2019-03-20T11:35:23.541Z,4.62
2019-03-20T11:37:52.054Z,5.72
2019-03-20T11:40:30.985Z,4.95
2019-03-20T11:42:59.569Z,5.10
2019-03-20T11:45:28.304Z,5.55
2019-03-20T11:47:56.959Z,5.60
2019-03-20T11:50:31.057Z,5.22
2019-03-20T11:52:59.786Z,5.37
2019-03-20T11:55:28.336Z,5.80
2019-03-20T11:57:56.815Z,5.60
2019-03-20T12:00:26.236Z,5.50
2019-03-20T12:02:54.678Z,5.50
2019-03-20T12:05:23.135Z,6.47
2019-03-20T12:07:51.618Z,5.97
2019-03-20T12:10:22.010Z,5.72
2019-03-20T12:15:18.357Z,5.85
2019-03-20T12:17:46.977Z,6.85
2019-03-20T12:20:25.051Z,6.08
2019-03-20T12:22:53.741Z,6.37
2019-03-20T12:25:32.393Z,6.08
2019-03-20T12:28:00.917Z,6.42
2019-03-20T12:30:33.650Z,5.97
2019-03-20T12:33:02.199Z,5.92
2019-03-20T12:35:33.798Z,6.33
2019-03-20T12:38:13.313Z,5.35
2019-03-20T12:40:32.657Z,5.55
2019-03-20T12:43:01.358Z,5.47
2019-03-20T12:45:37.197Z,5.87
2019-03-20T12:48:08.167Z,5.30
2019-03-20T12:50:36.753Z,5.17
2019-03-20T12:53:10.429Z,5.42
2019-03-20T12:55:38.910Z,6.45
2019-03-20T12:58:07.361Z,5.75
2019-03-20T13:00:36.083Z,9.03
2019-03-20T13:03:04.604Z,6.45
2019-03-20T13:05:33.049Z,7.17
2019-03-20T13:08:05.796Z,5.85
2019-03-20T13:10:31.749Z,5.60
2019-03-20T13:13:00.219Z,5.20
2019-03-20T13:15:29.138Z,6.53
2019-03-20T13:17:57.949Z,5.62
2019-03-20T13:20:26.666Z,5.58
2019-03-20T13:23:13.822Z,5.67
2019-03-20T13:25:42.461Z,6.10
2019-03-20T13:28:10.956Z,6.05
2019-03-20T13:30:57.709Z,6.12
2019-03-20T13:33:26.408Z,6.47
2019-03-20T13:35:54.982Z,5.22
2019-03-20T13:38:23.514Z,6.33
2019-03-20T13:40:51.969Z,5.95
2019-03-20T13:43:20.417Z,6.58
2019-03-20T13:45:48.927Z,6.85
2019-03-20T13:48:17.377Z,6.33
2019-03-20T13:50:45.823Z,5.33
2019-03-20T13:53:15.540Z,6.87
2019-03-20T13:55:44.249Z,7.42
2019-03-20T13:58:12.702Z,6.90
2019-03-20T14:00:41.213Z,7.15
2019-03-20T14:03:09.660Z,7.00
2019-03-20T14:05:38.106Z,6.70
2019-03-20T14:08:06.689Z,6.75
2019-03-20T14:10:49.436Z,6.87
2019-03-20T14:13:05.407Z,7.67
2019-03-20T14:15:33.890Z,7.37
2019-03-20T14:18:02.345Z,7.53
2019-03-20T14:20:32.392Z,7.58
2019-03-20T14:23:00.846Z,8.20
2019-03-20T14:25:29.307Z,8.05
2019-03-20T14:27:57.821Z,8.60
2019-03-20T14:30:30.682Z,8.78
2019-03-20T14:32:59.403Z,8.90
2019-03-20T14:35:27.965Z,9.53
2019-03-20T14:37:56.415Z,9.25
2019-03-20T14:40:37.645Z,9.35
2019-03-20T14:43:00.933Z,9.45
2019-03-20T14:45:29.580Z,8.73
2019-03-20T14:47:58.117Z,9.63
2019-03-20T14:50:27.271Z,8.50
2019-03-20T14:52:55.717Z,9.20
2019-03-20T14:55:24.170Z,9.53
2019-03-20T14:57:52.853Z,8.55
2019-03-20T15:00:22.948Z,9.18
2019-03-20T15:02:51.469Z,9.88
2019-03-20T15:05:20.049Z,9.45
2019-03-20T15:07:48.505Z,9.78
2019-03-20T15:10:25.928Z,10.32
2019-03-20T15:12:54.922Z,10.75
2019-03-20T15:15:41.630Z,10.00
2019-03-20T15:18:10.254Z,10.08
2019-03-20T15:20:38.774Z,10.95
2019-03-20T15:23:07.227Z,10.10
2019-03-20T15:25:35.678Z,9.85
2019-03-20T15:28:04.365Z,10.63
2019-03-20T15:30:32.834Z,10.35
2019-03-20T15:33:01.843Z,10.58
2019-03-20T15:35:30.406Z,11.43
2019-03-20T15:37:58.933Z,11.15
2019-03-20T15:40:28.759Z,12.15
2019-03-20T15:42:57.282Z,12.25
2019-03-20T15:45:25.750Z,11.40
2019-03-20T15:47:54.270Z,11.70
2019-03-20T15:50:29.112Z,12.50
2019-03-20T15:52:57.568Z,12.95
2019-03-20T15:55:31.130Z,13.10
2019-03-20T15:57:59.707Z,12.33
2019-03-20T16:00:28.177Z,12.98
2019-03-20T16:03:25.201Z,11.38
2019-03-20T16:05:53.665Z,11.88
2019-03-20T16:08:22.958Z,13.58
2019-03-20T16:10:51.430Z,12.40
2019-03-20T16:13:19.897Z,12.20
2019-03-20T16:15:48.448Z,12.75
2019-03-20T16:18:16.935Z,12.33
2019-03-20T16:20:45.398Z,11.53
2019-03-20T16:23:13.929Z,11.97
2019-03-20T16:25:42.394Z,11.55
2019-03-20T16:28:10.841Z,11.85
2019-03-20T16:30:39.364Z,12.40
2019-03-20T16:33:07.921Z,12.78
2019-03-20T16:35:36.381Z,12.00
2019-03-20T16:38:06.996Z,12.00
2019-03-20T16:40:36.602Z,11.55
2019-03-20T16:43:05.694Z,12.28
2019-03-20T16:45:35.647Z,11.93
2019-03-20T16:48:04.834Z,12.15
2019-03-20T16:50:33.413Z,12.25
2019-03-20T16:53:01.945Z,11.85
2019-03-20T16:55:30.405Z,11.57
2019-03-20T16:57:58.889Z,12.78
2019-03-20T17:00:31.913Z,13.60
2019-03-20T17:03:00.740Z,12.25
2019-03-20T17:05:30.330Z,12.68
2019-03-20T17:07:58.974Z,12.90
2019-03-20T17:10:30.001Z,12.47
2019-03-20T17:12:59.253Z,12.95
2019-03-20T17:15:30.029Z,13.15
2019-03-20T17:17:58.501Z,13.70
2019-03-20T17:20:26.972Z,13.48
2019-03-20T17:22:55.485Z,13.75
2019-03-20T17:25:44.798Z,12.88
2019-03-20T17:28:13.317Z,12.30
2019-03-20T17:30:43.915Z,12.55
2019-03-20T17:33:12.388Z,12.68
2019-03-20T17:35:41.231Z,13.68
2019-03-20T17:38:09.771Z,11.90
2019-03-20T17:40:38.320Z,14.25
2019-03-20T17:43:06.906Z,12.73
2019-03-20T17:45:35.733Z,13.03
2019-03-20T17:48:05.030Z,12.37
2019-03-20T17:50:34.511Z,12.80
2019-03-20T17:53:04.651Z,12.53
2019-03-20T17:55:33.106Z,12.07
2019-03-20T17:58:01.665Z,14.20
2019-03-20T18:00:32.497Z,13.60
2019-03-20T18:03:01.215Z,12.98
2019-03-20T18:05:29.668Z,12.37
2019-03-20T18:07:58.234Z,13.58
2019-03-20T18:10:26.808Z,13.83
2019-03-20T18:12:55.263Z,15.03
2019-03-20T18:15:23.715Z,14.30
2019-03-20T18:17:52.330Z,14.60
2019-03-20T18:20:21.246Z,13.53
2019-03-20T18:22:49.705Z,11.88
2019-03-20T18:25:18.217Z,13.55
2019-03-20T18:27:46.859Z,13.83
2019-03-20T18:30:26.146Z,17.75
2019-03-20T18:32:54.651Z,16.15
2019-03-20T18:35:23.166Z,17.00
2019-03-20T18:37:51.697Z,19.27
2019-03-20T18:40:22.518Z,15.53
2019-03-20T18:42:50.970Z,16.23
2019-03-20T18:45:28.693Z,17.42
2019-03-20T18:47:57.141Z,25.32
2019-03-20T18:50:26.367Z,27.22
2019-03-20T18:52:54.919Z,18.77
2019-03-20T18:55:23.543Z,15.28
2019-03-20T18:57:52.110Z,18.23
2019-03-20T19:00:23.081Z,16.00
2019-03-20T19:02:56.381Z,16.97
2019-03-20T19:05:31.305Z,16.70
2019-03-20T19:07:59.770Z,16.65
2019-03-20T19:10:28.409Z,15.13
2019-03-20T19:12:56.945Z,15.40
2019-03-20T19:15:25.469Z,16.87
2019-03-20T19:17:53.962Z,17.67
2019-03-20T19:20:22.529Z,19.35
2019-03-20T19:22:51.042Z,19.17
2019-03-20T19:25:19.534Z,14.85
2019-03-20T19:27:47.996Z,16.40
2019-03-20T19:30:21.023Z,13.00
2019-03-20T19:32:49.678Z,13.35
2019-03-20T19:35:18.164Z,11.28
2019-03-20T19:37:46.828Z,8.43
2019-03-20T19:40:22.353Z,7.25
2019-03-20T19:42:50.861Z,6.92
2019-03-20T19:45:19.549Z,6.33
2019-03-20T19:47:48.004Z,7.10
2019-03-20T19:50:19.407Z,6.37
2019-03-20T19:52:47.862Z,7.30
2019-03-20T19:55:17.120Z,7.65
2019-03-20T19:57:45.929Z,6.35
2019-03-20T20:00:20.474Z,7.37
2019-03-20T20:02:48.924Z,6.62
2019-03-20T20:05:17.443Z,6.83
2019-03-20T20:07:46.021Z,6.58
2019-03-20T20:10:18.325Z,6.47
2019-03-20T20:12:47.441Z,6.17
2019-03-20T20:15:24.519Z,6.42
2019-03-20T20:17:52.963Z,7.15
2019-03-20T20:20:23.793Z,6.67
2019-03-20T20:22:52.241Z,6.47
2019-03-20T20:25:20.701Z,6.75
2019-03-20T20:27:49.214Z,7.62
2019-03-20T20:30:18.697Z,7.62
2019-03-20T20:32:47.211Z,7.73
2019-03-20T20:35:16.972Z,7.67
2019-03-20T20:37:49.631Z,7.58
2019-03-20T20:40:28.777Z,6.70
2019-03-20T20:42:57.238Z,7.30
2019-03-20T20:45:25.709Z,7.25
2019-03-20T20:47:54.160Z,7.15
2019-03-20T20:50:22.848Z,6.78
2019-03-20T20:52:51.294Z,7.10
2019-03-20T20:55:21.759Z,6.87
2019-03-20T20:57:50.305Z,6.80
2019-03-20T21:00:25.491Z,7.40
2019-03-20T21:02:54.001Z,6.87
2019-03-20T21:05:22.461Z,6.55
2019-03-20T21:07:50.906Z,6.47
2019-03-20T21:10:24.310Z,7.53
2019-03-20T21:12:56.614Z,7.40
2019-03-20T21:15:34.666Z,7.33
2019-03-20T21:18:15.052Z,7.85
2019-03-20T21:23:37.507Z,8.25
2019-03-20T21:26:07.150Z,9.18
2019-03-20T21:29:04.273Z,9.35
2019-03-20T21:31:35.861Z,9.23
2019-03-20T21:34:42.465Z,9.98
2019-03-20T21:37:30.446Z,10.93
2019-03-20T21:39:58.901Z,10.72
2019-03-20T21:42:53.178Z,10.25
2019-03-20T21:45:27.814Z,11.53
2019-03-20T21:47:56.310Z,11.75
2019-03-20T21:50:37.030Z,10.78
2019-03-20T21:53:05.490Z,11.75
2019-03-20T21:56:10.198Z,10.75
2019-03-20T21:58:41.914Z,11.83
2019-03-20T22:01:28.348Z,10.98
2019-03-20T22:03:57.090Z,11.63
2019-03-20T22:06:45.085Z,11.83
2019-03-20T22:09:15.947Z,13.03
2019-03-20T22:12:16.174Z,12.00
2019-03-20T22:14:47.928Z,11.30
2019-03-20T22:17:49.917Z,11.88
2019-03-20T22:20:30.930Z,10.98
2019-03-20T22:23:19.121Z,11.48
2019-03-20T22:26:02.778Z,11.88
2019-03-20T22:28:53.918Z,11.60
2019-03-20T22:31:22.437Z,11.85
2019-03-20T22:34:27.425Z,11.65
2019-03-20T22:36:56.098Z,12.68
2019-03-20T22:40:01.206Z,12.50
2019-03-20T22:42:41.910Z,13.22
2019-03-20T22:45:46.821Z,13.53
2019-03-20T22:48:41.341Z,12.43
2019-03-20T22:51:29.485Z,13.70
2019-03-20T22:54:32.766Z,13.70
2019-03-20T22:57:16.320Z,14.25
2019-03-20T22:59:44.842Z,13.95
2019-03-20T23:02:22.114Z,14.00
2019-03-20T23:04:54.013Z,15.03
2019-03-20T23:07:22.479Z,14.15
2019-03-20T23:09:51.000Z,14.53
2019-03-20T23:12:19.614Z,14.07
2019-03-20T23:14:48.138Z,14.25
2019-03-20T23:17:16.685Z,15.72
2019-03-20T23:19:45.977Z,14.55
2019-03-20T23:22:14.461Z,14.95
2019-03-20T23:24:43.585Z,14.50
2019-03-20T23:27:15.705Z,14.90
2019-03-20T23:29:44.149Z,15.03
2019-03-20T23:32:12.736Z,15.45
2019-03-20T23:34:41.185Z,15.38
2019-03-20T23:37:09.656Z,16.95
2019-03-20T23:39:38.209Z,16.62
2019-03-20T23:42:06.666Z,16.45
2019-03-20T23:44:35.183Z,16.37
2019-03-20T23:47:03.705Z,18.45
2019-03-20T23:49:32.149Z,18.67
2019-03-20T23:52:00.647Z,17.60
2019-03-20T23:54:32.504Z,18.42
2019-03-20T23:57:01.111Z,18.27
2019-03-20T23:59:29.594Z,18.77
